sensor_id;sensor_type;location;lat;lon;timestamp;P1;durP1;ratioP1;P2;durP2;ratioP2
38851;SDS011;24605;50.092;9.182;2023-02-01T00:02:26;16.08;;;8.93;;
38851;SDS011;24605;50.092;9.182;2023-02-01T00:04:53;14.35;;;8.13;;
38851;SDS011;24605;50.092;9.182;2023-02-01T00:07:19;16.80;;;9.77;;
38851;SDS011;24605;50.092;9.182;2023-02-01T00:09:46;15.30;;;8.30;;
38851;SDS011;24605;50.092;9.182;2023-02-01T00:12:12;16.13;;;8.80;;
38851;SDS011;24605;50.092;9.182;2023-02-01T00:14:39;15.98;;;9.20;;
38851;SDS011;24605;50.092;9.182;2023-02-01T00:17:06;16.13;;;9.07;;
38851;SDS011;24605;50.092;9.182;2023-02-01T00:19:34;17.10;;;9.88;;
38851;SDS011;24605;50.092;9.182;2023-02-01T00:22:01;15.82;;;9.68;;
38851;SDS011;24605;50.092;9.182;2023-02-01T00:24:27;17.30;;;10.45;;
38851;SDS011;24605;50.092;9.182;2023-02-01T00:26:54;15.30;;;8.95;;
38851;SDS011;24605;50.092;9.182;2023-02-01T00:29:21;15.90;;;8.50;;
38851;SDS011;24605;50.092;9.182;2023-02-01T00:31:49;16.88;;;9.45;;
38851;SDS011;24605;50.092;9.182;2023-02-01T00:34:17;15.60;;;9.48;;
38851;SDS011;24605;50.092;9.182;2023-02-01T00:36:46;18.40;;;10.65;;
38851;SDS011;24605;50.092;9.182;2023-02-01T00:39:13;16.63;;;9.93;;
38851;SDS011;24605;50.092;9.182;2023-02-01T00:41:40;16.98;;;9.55;;
38851;SDS011;24605;50.092;9.182;2023-02-01T00:44:07;16.75;;;9.40;;
38851;SDS011;24605;50.092;9.182;2023-02-01T00:46:33;17.95;;;9.70;;
38851;SDS011;24605;50.092;9.182;2023-02-01T00:49:00;18.10;;;11.27;;
38851;SDS011;24605;50.092;9.182;2023-02-01T00:51:27;16.67;;;9.85;;
38851;SDS011;24605;50.092;9.182;2023-02-01T00:53:56;18.30;;;9.75;;
38851;SDS011;24605;50.092;9.182;2023-02-01T00:56:23;18.98;;;9.82;;
38851;SDS011;24605;50.092;9.182;2023-02-01T00:58:49;15.93;;;9.43;;
38851;SDS011;24605;50.092;9.182;2023-02-01T01:01:16;17.75;;;10.25;;
38851;SDS011;24605;50.092;9.182;2023-02-01T01:03:45;17.15;;;11.10;;
38851;SDS011;24605;50.092;9.182;2023-02-01T01:06:13;16.95;;;10.35;;
38851;SDS011;24605;50.092;9.182;2023-02-01T01:08:41;17.48;;;9.98;;
38851;SDS011;24605;50.092;9.182;2023-02-01T01:11:10;15.10;;;9.60;;
38851;SDS011;24605;50.092;9.182;2023-02-01T01:13:39;16.20;;;9.18;;
38851;SDS011;24605;50.092;9.182;2023-02-01T01:16:06;17.75;;;9.50;;
38851;SDS011;24605;50.092;9.182;2023-02-01T01:18:34;16.88;;;8.82;;
38851;SDS011;24605;50.092;9.182;2023-02-01T01:21:01;14.98;;;9.73;;
38851;SDS011;24605;50.092;9.182;2023-02-01T01:23:30;16.38;;;9.82;;
38851;SDS011;24605;50.092;9.182;2023-02-01T01:25:56;17.95;;;9.27;;
38851;SDS011;24605;50.092;9.182;2023-02-01T01:28:24;13.60;;;8.82;;
38851;SDS011;24605;50.092;9.182;2023-02-01T01:30:51;16.65;;;9.05;;
38851;SDS011;24605;50.092;9.182;2023-02-01T01:33:17;17.48;;;9.85;;
38851;SDS011;24605;50.092;9.182;2023-02-01T01:35:44;16.48;;;9.38;;
38851;SDS011;24605;50.092;9.182;2023-02-01T01:38:10;14.02;;;8.52;;
38851;SDS011;24605;50.092;9.182;2023-02-01T01:40:37;14.93;;;9.93;;
38851;SDS011;24605;50.092;9.182;2023-02-01T01:43:05;21.77;;;10.60;;
38851;SDS011;24605;50.092;9.182;2023-02-01T01:45:40;21.63;;;10.55;;
38851;SDS011;24605;50.092;9.182;2023-02-01T01:48:07;18.15;;;10.20;;
38851;SDS011;24605;50.092;9.182;2023-02-01T01:50:37;17.40;;;10.15;;
38851;SDS011;24605;50.092;9.182;2023-02-01T01:53:07;18.45;;;9.68;;
38851;SDS011;24605;50.092;9.182;2023-02-01T01:55:38;18.00;;;9.98;;
38851;SDS011;24605;50.092;9.182;2023-02-01T01:58:10;16.17;;;9.80;;
38851;SDS011;24605;50.092;9.182;2023-02-01T02:00:41;18.33;;;11.45;;
38851;SDS011;24605;50.092;9.182;2023-02-01T02:03:09;20.52;;;10.23;;
38851;SDS011;24605;50.092;9.182;2023-02-01T02:05:40;18.08;;;10.00;;
38851;SDS011;24605;50.092;9.182;2023-02-01T02:08:07;21.48;;;10.13;;
38851;SDS011;24605;50.092;9.182;2023-02-01T02:10:34;23.38;;;12.23;;
38851;SDS011;24605;50.092;9.182;2023-02-01T02:13:16;17.05;;;10.55;;
38851;SDS011;24605;50.092;9.182;2023-02-01T02:15:48;17.85;;;10.18;;
38851;SDS011;24605;50.092;9.182;2023-02-01T02:18:24;16.48;;;10.30;;
38851;SDS011;24605;50.092;9.182;2023-02-01T02:23:54;19.17;;;11.27;;
38851;SDS011;24605;50.092;9.182;2023-02-01T02:26:47;19.98;;;11.38;;
38851;SDS011;24605;50.092;9.182;2023-02-01T02:29:37;18.15;;;10.60;;
38851;SDS011;24605;50.092;9.182;2023-02-01T02:32:41;19.70;;;10.93;;
38851;SDS011;24605;50.092;9.182;2023-02-01T02:35:20;21.15;;;11.45;;
38851;SDS011;24605;50.092;9.182;2023-02-01T02:37:59;20.10;;;11.60;;
38851;SDS011;24605;50.092;9.182;2023-02-01T02:40:32;20.95;;;12.15;;
38851;SDS011;24605;50.092;9.182;2023-02-01T02:43:04;20.05;;;11.40;;
38851;SDS011;24605;50.092;9.182;2023-02-01T02:45:54;20.65;;;12.45;;
38851;SDS011;24605;50.092;9.182;2023-02-01T02:48:45;19.83;;;11.38;;
38851;SDS011;24605;50.092;9.182;2023-02-01T02:51:19;24.00;;;12.77;;
38851;SDS011;24605;50.092;9.182;2023-02-01T02:54:23;22.85;;;12.02;;
38851;SDS011;24605;50.092;9.182;2023-02-01T02:57:12;20.85;;;12.20;;
38851;SDS011;24605;50.092;9.182;2023-02-01T03:00:00;23.67;;;12.68;;
38851;SDS011;24605;50.092;9.182;2023-02-01T03:02:46;19.75;;;12.80;;
38851;SDS011;24605;50.092;9.182;2023-02-01T03:05:33;21.15;;;12.35;;
38851;SDS011;24605;50.092;9.182;2023-02-01T03:08:03;21.48;;;13.10;;
38851;SDS011;24605;50.092;9.182;2023-02-01T03:10:38;24.98;;;13.15;;
38851;SDS011;24605;50.092;9.182;2023-02-01T03:13:13;24.88;;;13.02;;
38851;SDS011;24605;50.092;9.182;2023-02-01T03:15:42;22.77;;;13.25;;
38851;SDS011;24605;50.092;9.182;2023-02-01T03:18:16;26.25;;;13.07;;
38851;SDS011;24605;50.092;9.182;2023-02-01T03:20:47;24.13;;;12.35;;
38851;SDS011;24605;50.092;9.182;2023-02-01T03:23:19;21.67;;;11.98;;
38851;SDS011;24605;50.092;9.182;2023-02-01T03:25:49;25.75;;;12.40;;
38851;SDS011;24605;50.092;9.182;2023-02-01T03:28:17;21.08;;;10.75;;
38851;SDS011;24605;50.092;9.182;2023-02-01T03:30:46;20.55;;;11.38;;
38851;SDS011;24605;50.092;9.182;2023-02-01T03:33:17;20.65;;;10.88;;
38851;SDS011;24605;50.092;9.182;2023-02-01T03:35:50;19.10;;;9.93;;
38851;SDS011;24605;50.092;9.182;2023-02-01T03:38:26;18.90;;;10.38;;
38851;SDS011;24605;50.092;9.182;2023-02-01T03:40:57;16.90;;;8.60;;
38851;SDS011;24605;50.092;9.182;2023-02-01T03:43:29;16.48;;;9.35;;
38851;SDS011;24605;50.092;9.182;2023-02-01T03:46:01;17.77;;;8.85;;
38851;SDS011;24605;50.092;9.182;2023-02-01T03:48:32;15.88;;;8.65;;
38851;SDS011;24605;50.092;9.182;2023-02-01T03:51:00;17.15;;;8.73;;
38851;SDS011;24605;50.092;9.182;2023-02-01T03:53:32;21.27;;;8.18;;
38851;SDS011;24605;50.092;9.182;2023-02-01T03:56:02;14.90;;;7.53;;
38851;SDS011;24605;50.092;9.182;2023-02-01T03:58:29;15.68;;;7.40;;
38851;SDS011;24605;50.092;9.182;2023-02-01T04:00:57;14.70;;;6.72;;
38851;SDS011;24605;50.092;9.182;2023-02-01T04:03:25;19.33;;;7.63;;
38851;SDS011;24605;50.092;9.182;2023-02-01T04:05:53;12.48;;;6.47;;
38851;SDS011;24605;50.092;9.182;2023-02-01T04:08:20;13.50;;;5.40;;
38851;SDS011;24605;50.092;9.182;2023-02-01T04:10:48;9.88;;;4.90;;
38851;SDS011;24605;50.092;9.182;2023-02-01T04:13:15;12.32;;;5.22;;
38851;SDS011;24605;50.092;9.182;2023-02-01T04:15:41;13.80;;;4.88;;
38851;SDS011;24605;50.092;9.182;2023-02-01T04:18:08;15.43;;;4.95;;
38851;SDS011;24605;50.092;9.182;2023-02-01T04:20:34;10.52;;;4.32;;
38851;SDS011;24605;50.092;9.182;2023-02-01T04:23:01;11.85;;;4.93;;
38851;SDS011;24605;50.092;9.182;2023-02-01T04:25:29;9.80;;;4.07;;
38851;SDS011;24605;50.092;9.182;2023-02-01T04:27:57;10.88;;;4.13;;
38851;SDS011;24605;50.092;9.182;2023-02-01T04:30:24;8.68;;;3.83;;
38851;SDS011;24605;50.092;9.182;2023-02-01T04:32:50;10.23;;;3.95;;
38851;SDS011;24605;50.092;9.182;2023-02-01T04:35:17;10.07;;;4.50;;
38851;SDS011;24605;50.092;9.182;2023-02-01T04:37:44;13.60;;;5.20;;
38851;SDS011;24605;50.092;9.182;2023-02-01T04:40:11;9.65;;;4.25;;
38851;SDS011;24605;50.092;9.182;2023-02-01T04:42:38;12.18;;;4.82;;
38851;SDS011;24605;50.092;9.182;2023-02-01T04:45:06;12.43;;;5.05;;
38851;SDS011;24605;50.092;9.182;2023-02-01T04:47:33;12.25;;;5.63;;
38851;SDS011;24605;50.092;9.182;2023-02-01T04:50:00;15.98;;;5.53;;
38851;SDS011;24605;50.092;9.182;2023-02-01T04:52:27;10.95;;;5.30;;
38851;SDS011;24605;50.092;9.182;2023-02-01T04:54:53;15.25;;;6.38;;
38851;SDS011;24605;50.092;9.182;2023-02-01T04:57:22;11.45;;;5.80;;
38851;SDS011;24605;50.092;9.182;2023-02-01T04:59:49;16.98;;;7.50;;
38851;SDS011;24605;50.092;9.182;2023-02-01T05:02:17;11.35;;;6.72;;
38851;SDS011;24605;50.092;9.182;2023-02-01T05:04:43;16.95;;;7.45;;
38851;SDS011;24605;50.092;9.182;2023-02-01T05:07:10;18.15;;;8.27;;
38851;SDS011;24605;50.092;9.182;2023-02-01T05:09:36;16.13;;;8.13;;
38851;SDS011;24605;50.092;9.182;2023-02-01T05:12:03;15.55;;;8.75;;
38851;SDS011;24605;50.092;9.182;2023-02-01T05:14:47;14.85;;;8.57;;
38851;SDS011;24605;50.092;9.182;2023-02-01T05:17:14;20.67;;;10.20;;
38851;SDS011;24605;50.092;9.182;2023-02-01T05:19:42;18.30;;;9.10;;
38851;SDS011;24605;50.092;9.182;2023-02-01T05:22:09;18.65;;;8.60;;
38851;SDS011;24605;50.092;9.182;2023-02-01T05:24:35;16.83;;;8.77;;
38851;SDS011;24605;50.092;9.182;2023-02-01T05:27:01;18.55;;;8.63;;
38851;SDS011;24605;50.092;9.182;2023-02-01T05:29:28;18.85;;;8.93;;
38851;SDS011;24605;50.092;9.182;2023-02-01T05:31:55;18.55;;;10.00;;
38851;SDS011;24605;50.092;9.182;2023-02-01T05:34:21;19.17;;;9.23;;
38851;SDS011;24605;50.092;9.182;2023-02-01T05:36:49;19.27;;;9.23;;
38851;SDS011;24605;50.092;9.182;2023-02-01T05:39:16;18.55;;;9.65;;
38851;SDS011;24605;50.092;9.182;2023-02-01T05:41:42;25.20;;;9.05;;
38851;SDS011;24605;50.092;9.182;2023-02-01T05:44:09;21.85;;;10.57;;
38851;SDS011;24605;50.092;9.182;2023-02-01T05:46:36;18.35;;;9.88;;
38851;SDS011;24605;50.092;9.182;2023-02-01T05:49:03;18.50;;;9.65;;
38851;SDS011;24605;50.092;9.182;2023-02-01T05:51:30;22.23;;;8.63;;
38851;SDS011;24605;50.092;9.182;2023-02-01T05:53:59;17.17;;;8.35;;
38851;SDS011;24605;50.092;9.182;2023-02-01T05:56:26;17.52;;;8.50;;
38851;SDS011;24605;50.092;9.182;2023-02-01T05:58:53;18.05;;;8.70;;
38851;SDS011;24605;50.092;9.182;2023-02-01T06:01:20;16.67;;;8.52;;
38851;SDS011;24605;50.092;9.182;2023-02-01T06:03:47;19.13;;;7.68;;
38851;SDS011;24605;50.092;9.182;2023-02-01T06:06:14;17.90;;;8.88;;
38851;SDS011;24605;50.092;9.182;2023-02-01T06:08:40;19.42;;;7.50;;
38851;SDS011;24605;50.092;9.182;2023-02-01T06:11:08;17.63;;;8.30;;
38851;SDS011;24605;50.092;9.182;2023-02-01T06:13:35;19.65;;;7.88;;
38851;SDS011;24605;50.092;9.182;2023-02-01T06:16:03;20.33;;;8.20;;
38851;SDS011;24605;50.092;9.182;2023-02-01T06:18:32;18.83;;;7.72;;
38851;SDS011;24605;50.092;9.182;2023-02-01T06:20:59;14.55;;;6.97;;
38851;SDS011;24605;50.092;9.182;2023-02-01T06:23:27;17.73;;;6.70;;
38851;SDS011;24605;50.092;9.182;2023-02-01T06:25:57;19.75;;;7.03;;
38851;SDS011;24605;50.092;9.182;2023-02-01T06:28:27;16.17;;;6.45;;
38851;SDS011;24605;50.092;9.182;2023-02-01T06:30:54;17.67;;;7.20;;
38851;SDS011;24605;50.092;9.182;2023-02-01T06:33:22;21.40;;;7.25;;
38851;SDS011;24605;50.092;9.182;2023-02-01T06:35:56;19.30;;;7.25;;
38851;SDS011;24605;50.092;9.182;2023-02-01T06:38:23;17.33;;;6.35;;
38851;SDS011;24605;50.092;9.182;2023-02-01T06:40:51;17.27;;;7.00;;
38851;SDS011;24605;50.092;9.182;2023-02-01T06:43:19;16.85;;;6.88;;
38851;SDS011;24605;50.092;9.182;2023-02-01T06:45:53;18.25;;;6.38;;
38851;SDS011;24605;50.092;9.182;2023-02-01T06:48:37;18.92;;;6.45;;
38851;SDS011;24605;50.092;9.182;2023-02-01T06:51:04;18.42;;;5.63;;
38851;SDS011;24605;50.092;9.182;2023-02-01T06:53:31;14.23;;;5.50;;
38851;SDS011;24605;50.092;9.182;2023-02-01T06:55:59;11.45;;;4.72;;
38851;SDS011;24605;50.092;9.182;2023-02-01T06:58:28;19.05;;;5.10;;
38851;SDS011;24605;50.092;9.182;2023-02-01T07:00:57;19.50;;;4.40;;
38851;SDS011;24605;50.092;9.182;2023-02-01T07:03:24;13.50;;;4.70;;
38851;SDS011;24605;50.092;9.182;2023-02-01T07:05:54;17.02;;;4.57;;
38851;SDS011;24605;50.092;9.182;2023-02-01T07:08:22;18.27;;;4.68;;
38851;SDS011;24605;50.092;9.182;2023-02-01T07:10:48;15.02;;;3.90;;
38851;SDS011;24605;50.092;9.182;2023-02-01T07:13:15;18.08;;;4.40;;
38851;SDS011;24605;50.092;9.182;2023-02-01T07:15:42;16.40;;;4.47;;
38851;SDS011;24605;50.092;9.182;2023-02-01T07:18:13;13.63;;;3.90;;
38851;SDS011;24605;50.092;9.182;2023-02-01T07:20:40;17.10;;;4.38;;
38851;SDS011;24605;50.092;9.182;2023-02-01T07:23:08;14.77;;;4.00;;
38851;SDS011;24605;50.092;9.182;2023-02-01T07:25:36;13.10;;;4.55;;
38851;SDS011;24605;50.092;9.182;2023-02-01T07:28:03;17.25;;;4.05;;
38851;SDS011;24605;50.092;9.182;2023-02-01T07:30:30;11.63;;;3.67;;
38851;SDS011;24605;50.092;9.182;2023-02-01T07:32:56;11.32;;;3.78;;
38851;SDS011;24605;50.092;9.182;2023-02-01T07:35:27;15.23;;;3.45;;
38851;SDS011;24605;50.092;9.182;2023-02-01T07:37:54;16.23;;;4.30;;
38851;SDS011;24605;50.092;9.182;2023-02-01T07:40:23;10.00;;;3.38;;
38851;SDS011;24605;50.092;9.182;2023-02-01T07:42:53;11.63;;;3.10;;
38851;SDS011;24605;50.092;9.182;2023-02-01T07:45:20;14.38;;;3.40;;
38851;SDS011;24605;50.092;9.182;2023-02-01T07:47:47;9.68;;;3.25;;
38851;SDS011;24605;50.092;9.182;2023-02-01T07:50:14;11.55;;;3.70;;
38851;SDS011;24605;50.092;9.182;2023-02-01T07:52:42;14.32;;;3.28;;
38851;SDS011;24605;50.092;9.182;2023-02-01T07:55:09;10.65;;;3.38;;
38851;SDS011;24605;50.092;9.182;2023-02-01T07:57:35;7.68;;;2.80;;
38851;SDS011;24605;50.092;9.182;2023-02-01T08:00:02;13.27;;;3.38;;
38851;SDS011;24605;50.092;9.182;2023-02-01T08:02:47;18.67;;;3.60;;
38851;SDS011;24605;50.092;9.182;2023-02-01T08:05:14;14.15;;;3.45;;
38851;SDS011;24605;50.092;9.182;2023-02-01T08:07:42;14.95;;;2.88;;
38851;SDS011;24605;50.092;9.182;2023-02-01T08:10:09;15.68;;;2.95;;
38851;SDS011;24605;50.092;9.182;2023-02-01T08:12:36;10.63;;;3.30;;
38851;SDS011;24605;50.092;9.182;2023-02-01T08:15:03;19.67;;;3.75;;
38851;SDS011;24605;50.092;9.182;2023-02-01T08:17:31;10.60;;;3.20;;
38851;SDS011;24605;50.092;9.182;2023-02-01T08:19:57;16.63;;;2.88;;
38851;SDS011;24605;50.092;9.182;2023-02-01T08:22:24;14.05;;;4.45;;
38851;SDS011;24605;50.092;9.182;2023-02-01T08:24:52;15.90;;;2.75;;
38851;SDS011;24605;50.092;9.182;2023-02-01T08:27:26;23.65;;;4.18;;
38851;SDS011;24605;50.092;9.182;2023-02-01T08:29:52;11.65;;;2.90;;
38851;SDS011;24605;50.092;9.182;2023-02-01T08:32:19;12.93;;;2.88;;
38851;SDS011;24605;50.092;9.182;2023-02-01T08:34:46;15.00;;;3.33;;
38851;SDS011;24605;50.092;9.182;2023-02-01T08:37:12;10.90;;;3.03;;
38851;SDS011;24605;50.092;9.182;2023-02-01T08:39:39;14.43;;;3.50;;
38851;SDS011;24605;50.092;9.182;2023-02-01T08:42:09;14.52;;;3.63;;
38851;SDS011;24605;50.092;9.182;2023-02-01T08:44:54;12.90;;;3.20;;
38851;SDS011;24605;50.092;9.182;2023-02-01T08:47:21;11.27;;;3.13;;
38851;SDS011;24605;50.092;9.182;2023-02-01T08:49:47;12.88;;;3.25;;
38851;SDS011;24605;50.092;9.182;2023-02-01T08:52:14;11.77;;;3.40;;
38851;SDS011;24605;50.092;9.182;2023-02-01T08:54:41;19.20;;;4.43;;
38851;SDS011;24605;50.092;9.182;2023-02-01T08:57:07;11.90;;;3.22;;
38851;SDS011;24605;50.092;9.182;2023-02-01T08:59:36;15.90;;;3.30;;
38851;SDS011;24605;50.092;9.182;2023-02-01T09:02:03;13.57;;;3.33;;
38851;SDS011;24605;50.092;9.182;2023-02-01T09:04:29;13.57;;;3.42;;
38851;SDS011;24605;50.092;9.182;2023-02-01T09:06:56;15.52;;;3.88;;
38851;SDS011;24605;50.092;9.182;2023-02-01T09:09:23;13.35;;;3.20;;
38851;SDS011;24605;50.092;9.182;2023-02-01T09:11:50;16.48;;;3.75;;
38851;SDS011;24605;50.092;9.182;2023-02-01T09:14:16;12.25;;;3.67;;
38851;SDS011;24605;50.092;9.182;2023-02-01T09:16:44;16.05;;;3.50;;
38851;SDS011;24605;50.092;9.182;2023-02-01T09:19:11;16.30;;;3.33;;
38851;SDS011;24605;50.092;9.182;2023-02-01T09:21:37;13.25;;;4.07;;
38851;SDS011;24605;50.092;9.182;2023-02-01T09:24:04;11.18;;;2.97;;
38851;SDS011;24605;50.092;9.182;2023-02-01T09:26:32;22.92;;;4.28;;
38851;SDS011;24605;50.092;9.182;2023-02-01T09:28:59;14.95;;;3.72;;
38851;SDS011;24605;50.092;9.182;2023-02-01T09:31:26;15.95;;;3.92;;
38851;SDS011;24605;50.092;9.182;2023-02-01T09:33:54;17.50;;;3.65;;
38851;SDS011;24605;50.092;9.182;2023-02-01T09:36:21;15.02;;;3.55;;
38851;SDS011;24605;50.092;9.182;2023-02-01T09:38:48;15.43;;;2.97;;
38851;SDS011;24605;50.092;9.182;2023-02-01T09:41:20;13.60;;;3.25;;
38851;SDS011;24605;50.092;9.182;2023-02-01T09:43:55;15.30;;;3.58;;
38851;SDS011;24605;50.092;9.182;2023-02-01T09:46:34;20.67;;;4.63;;
38851;SDS011;24605;50.092;9.182;2023-02-01T09:49:09;31.20;;;6.70;;
38851;SDS011;24605;50.092;9.182;2023-02-01T09:51:40;13.95;;;3.53;;
38851;SDS011;24605;50.092;9.182;2023-02-01T09:54:11;15.65;;;3.90;;
38851;SDS011;24605;50.092;9.182;2023-02-01T09:56:44;21.70;;;4.50;;
38851;SDS011;24605;50.092;9.182;2023-02-01T09:59:18;13.60;;;3.60;;
38851;SDS011;24605;50.092;9.182;2023-02-01T10:01:52;18.25;;;3.55;;
38851;SDS011;24605;50.092;9.182;2023-02-01T10:04:20;17.08;;;3.55;;
38851;SDS011;24605;50.092;9.182;2023-02-01T10:06:51;9.30;;;3.22;;
38851;SDS011;24605;50.092;9.182;2023-02-01T10:09:32;20.45;;;3.33;;
38851;SDS011;24605;50.092;9.182;2023-02-01T10:12:32;12.80;;;3.40;;
38851;SDS011;24605;50.092;9.182;2023-02-01T10:15:17;12.25;;;3.80;;
38851;SDS011;24605;50.092;9.182;2023-02-01T10:17:54;15.48;;;4.13;;
38851;SDS011;24605;50.092;9.182;2023-02-01T10:20:34;17.38;;;4.25;;
38851;SDS011;24605;50.092;9.182;2023-02-01T10:26:04;13.82;;;3.47;;
38851;SDS011;24605;50.092;9.182;2023-02-01T10:28:38;13.43;;;3.30;;
38851;SDS011;24605;50.092;9.182;2023-02-01T10:31:06;14.23;;;3.00;;
38851;SDS011;24605;50.092;9.182;2023-02-01T10:33:36;17.23;;;3.10;;
38851;SDS011;24605;50.092;9.182;2023-02-01T10:36:10;14.20;;;2.92;;
38851;SDS011;24605;50.092;9.182;2023-02-01T10:38:44;12.00;;;2.60;;
38851;SDS011;24605;50.092;9.182;2023-02-01T10:41:12;12.18;;;3.25;;
38851;SDS011;24605;50.092;9.182;2023-02-01T10:43:41;15.13;;;2.60;;
38851;SDS011;24605;50.092;9.182;2023-02-01T10:46:09;17.27;;;3.45;;
38851;SDS011;24605;50.092;9.182;2023-02-01T10:48:36;12.05;;;2.78;;
38851;SDS011;24605;50.092;9.182;2023-02-01T10:51:05;10.82;;;2.78;;
38851;SDS011;24605;50.092;9.182;2023-02-01T10:53:35;14.82;;;3.28;;
38851;SDS011;24605;50.092;9.182;2023-02-01T10:56:08;14.05;;;2.75;;
38851;SDS011;24605;50.092;9.182;2023-02-01T10:58:36;14.23;;;3.30;;
38851;SDS011;24605;50.092;9.182;2023-02-01T11:01:10;14.07;;;3.53;;
38851;SDS011;24605;50.092;9.182;2023-02-01T11:03:44;12.00;;;2.85;;
38851;SDS011;24605;50.092;9.182;2023-02-01T11:06:19;14.18;;;3.25;;
38851;SDS011;24605;50.092;9.182;2023-02-01T11:08:53;13.05;;;2.78;;
38851;SDS011;24605;50.092;9.182;2023-02-01T11:11:21;15.98;;;3.33;;
38851;SDS011;24605;50.092;9.182;2023-02-01T11:13:56;18.40;;;3.38;;
38851;SDS011;24605;50.092;9.182;2023-02-01T11:16:33;17.30;;;3.65;;
38851;SDS011;24605;50.092;9.182;2023-02-01T11:19:01;10.25;;;2.42;;
38851;SDS011;24605;50.092;9.182;2023-02-01T11:21:28;13.57;;;3.00;;
38851;SDS011;24605;50.092;9.182;2023-02-01T11:23:57;24.10;;;3.97;;
38851;SDS011;24605;50.092;9.182;2023-02-01T11:26:27;11.10;;;2.75;;
38851;SDS011;24605;50.092;9.182;2023-02-01T11:28:56;11.85;;;3.17;;
38851;SDS011;24605;50.092;9.182;2023-02-01T11:31:26;14.57;;;3.35;;
38851;SDS011;24605;50.092;9.182;2023-02-01T11:33:55;13.38;;;3.05;;
38851;SDS011;24605;50.092;9.182;2023-02-01T11:36:24;18.58;;;3.35;;
38851;SDS011;24605;50.092;9.182;2023-02-01T11:38:54;16.80;;;3.80;;
38851;SDS011;24605;50.092;9.182;2023-02-01T11:41:43;10.45;;;2.47;;
38851;SDS011;24605;50.092;9.182;2023-02-01T11:44:23;14.90;;;3.42;;
38851;SDS011;24605;50.092;9.182;2023-02-01T11:46:56;12.40;;;2.53;;
38851;SDS011;24605;50.092;9.182;2023-02-01T11:49:44;17.67;;;2.80;;
38851;SDS011;24605;50.092;9.182;2023-02-01T11:52:12;12.77;;;2.80;;
38851;SDS011;24605;50.092;9.182;2023-02-01T11:54:59;14.93;;;2.88;;
38851;SDS011;24605;50.092;9.182;2023-02-01T11:57:43;11.68;;;2.83;;
38851;SDS011;24605;50.092;9.182;2023-02-01T12:00:28;12.57;;;2.85;;
38851;SDS011;24605;50.092;9.182;2023-02-01T12:03:10;15.75;;;2.55;;
38851;SDS011;24605;50.092;9.182;2023-02-01T12:05:59;10.68;;;2.60;;
38851;SDS011;24605;50.092;9.182;2023-02-01T12:11:30;14.95;;;2.90;;
38851;SDS011;24605;50.092;9.182;2023-02-01T12:14:13;13.20;;;2.60;;
38851;SDS011;24605;50.092;9.182;2023-02-01T12:16:51;16.80;;;2.90;;
38851;SDS011;24605;50.092;9.182;2023-02-01T12:19:30;13.48;;;2.63;;
38851;SDS011;24605;50.092;9.182;2023-02-01T12:28:02;13.80;;;2.95;;
38851;SDS011;24605;50.092;9.182;2023-02-01T12:30:46;19.23;;;2.78;;
38851;SDS011;24605;50.092;9.182;2023-02-01T12:33:24;10.23;;;2.72;;
38851;SDS011;24605;50.092;9.182;2023-02-01T12:36:07;16.67;;;2.60;;
38851;SDS011;24605;50.092;9.182;2023-02-01T12:38:44;15.32;;;2.47;;
38851;SDS011;24605;50.092;9.182;2023-02-01T12:41:24;15.32;;;3.47;;
38851;SDS011;24605;50.092;9.182;2023-02-01T12:43:59;15.25;;;3.30;;
38851;SDS011;24605;50.092;9.182;2023-02-01T12:46:32;16.65;;;3.42;;
38851;SDS011;24605;50.092;9.182;2023-02-01T12:49:05;16.65;;;2.53;;
38851;SDS011;24605;50.092;9.182;2023-02-01T12:51:36;12.75;;;2.72;;
38851;SDS011;24605;50.092;9.182;2023-02-01T12:54:06;11.13;;;2.88;;
38851;SDS011;24605;50.092;9.182;2023-02-01T12:56:41;13.95;;;2.25;;
38851;SDS011;24605;50.092;9.182;2023-02-01T12:59:16;13.90;;;2.75;;
38851;SDS011;24605;50.092;9.182;2023-02-01T13:01:48;17.70;;;3.65;;
38851;SDS011;24605;50.092;9.182;2023-02-01T13:04:23;17.17;;;3.47;;
38851;SDS011;24605;50.092;9.182;2023-02-01T13:06:55;14.27;;;3.03;;
38851;SDS011;24605;50.092;9.182;2023-02-01T13:09:29;11.98;;;2.80;;
38851;SDS011;24605;50.092;9.182;2023-02-01T13:12:05;11.88;;;2.80;;
38851;SDS011;24605;50.092;9.182;2023-02-01T13:14:40;10.20;;;2.85;;
38851;SDS011;24605;50.092;9.182;2023-02-01T13:17:12;14.93;;;2.90;;
38851;SDS011;24605;50.092;9.182;2023-02-01T13:19:42;8.73;;;2.90;;
38851;SDS011;24605;50.092;9.182;2023-02-01T13:22:12;14.68;;;3.53;;
38851;SDS011;24605;50.092;9.182;2023-02-01T13:24:43;18.48;;;3.20;;
38851;SDS011;24605;50.092;9.182;2023-02-01T13:27:13;14.40;;;3.35;;
38851;SDS011;24605;50.092;9.182;2023-02-01T13:29:44;12.65;;;2.65;;
38851;SDS011;24605;50.092;9.182;2023-02-01T13:32:23;13.75;;;3.03;;
38851;SDS011;24605;50.092;9.182;2023-02-01T13:35:12;14.52;;;3.72;;
38851;SDS011;24605;50.092;9.182;2023-02-01T13:38:10;12.52;;;2.38;;
38851;SDS011;24605;50.092;9.182;2023-02-01T13:40:52;15.43;;;3.05;;
38851;SDS011;24605;50.092;9.182;2023-02-01T13:43:38;23.63;;;3.70;;
38851;SDS011;24605;50.092;9.182;2023-02-01T13:46:09;13.40;;;2.58;;
38851;SDS011;24605;50.092;9.182;2023-02-01T13:48:40;15.60;;;2.53;;
38851;SDS011;24605;50.092;9.182;2023-02-01T13:51:13;11.48;;;2.80;;
38851;SDS011;24605;50.092;9.182;2023-02-01T13:53:44;12.80;;;2.88;;
38851;SDS011;24605;50.092;9.182;2023-02-01T13:56:12;12.93;;;2.75;;
38851;SDS011;24605;50.092;9.182;2023-02-01T13:58:43;10.95;;;2.40;;
38851;SDS011;24605;50.092;9.182;2023-02-01T14:07:17;12.52;;;2.08;;
38851;SDS011;24605;50.092;9.182;2023-02-01T14:09:45;13.65;;;3.08;;
38851;SDS011;24605;50.092;9.182;2023-02-01T14:15:23;14.77;;;3.45;;
38851;SDS011;24605;50.092;9.182;2023-02-01T14:17:52;12.65;;;2.10;;
38851;SDS011;24605;50.092;9.182;2023-02-01T14:23:17;13.88;;;2.55;;
38851;SDS011;24605;50.092;9.182;2023-02-01T14:25:59;21.27;;;3.92;;
38851;SDS011;24605;50.092;9.182;2023-02-01T14:28:30;10.73;;;2.30;;
38851;SDS011;24605;50.092;9.182;2023-02-01T14:30:57;10.23;;;2.25;;
38851;SDS011;24605;50.092;9.182;2023-02-01T14:33:27;14.35;;;2.67;;
38851;SDS011;24605;50.092;9.182;2023-02-01T14:36:02;11.10;;;2.50;;
38851;SDS011;24605;50.092;9.182;2023-02-01T14:38:32;11.30;;;2.20;;
38851;SDS011;24605;50.092;9.182;2023-02-01T14:41:16;12.43;;;2.20;;
38851;SDS011;24605;50.092;9.182;2023-02-01T14:44:12;14.55;;;2.53;;
38851;SDS011;24605;50.092;9.182;2023-02-01T14:49:30;11.50;;;2.20;;
38851;SDS011;24605;50.092;9.182;2023-02-01T14:51:59;14.02;;;2.72;;
38851;SDS011;24605;50.092;9.182;2023-02-01T14:54:28;11.13;;;2.38;;
38851;SDS011;24605;50.092;9.182;2023-02-01T14:56:55;11.10;;;2.28;;
38851;SDS011;24605;50.092;9.182;2023-02-01T14:59:21;15.18;;;3.20;;
38851;SDS011;24605;50.092;9.182;2023-02-01T15:01:52;13.73;;;2.40;;
38851;SDS011;24605;50.092;9.182;2023-02-01T15:04:24;11.52;;;2.80;;
38851;SDS011;24605;50.092;9.182;2023-02-01T15:06:53;9.32;;;2.28;;
38851;SDS011;24605;50.092;9.182;2023-02-01T15:09:24;14.52;;;2.13;;
38851;SDS011;24605;50.092;9.182;2023-02-01T15:11:57;20.08;;;3.35;;
38851;SDS011;24605;50.092;9.182;2023-02-01T15:14:25;14.05;;;2.40;;
38851;SDS011;24605;50.092;9.182;2023-02-01T15:16:53;13.85;;;2.40;;
38851;SDS011;24605;50.092;9.182;2023-02-01T15:19:20;10.68;;;1.95;;
38851;SDS011;24605;50.092;9.182;2023-02-01T15:21:49;10.07;;;2.30;;
38851;SDS011;24605;50.092;9.182;2023-02-01T15:24:19;10.52;;;2.60;;
38851;SDS011;24605;50.092;9.182;2023-02-01T15:26:47;14.20;;;3.35;;